createdAt,value
2019-02-21T00:01:35.629Z,83.71
2019-02-21T00:05:37.508Z,83.62
2019-02-21T00:09:39.401Z,83.37
2019-02-21T00:13:41.284Z,83.30
2019-02-21T00:17:43.200Z,83.02
2019-02-21T00:21:45.081Z,82.73
2019-02-21T00:25:46.969Z,82.79
2019-02-21T00:29:49.131Z,82.78
2019-02-21T00:33:51.010Z,82.70
2019-02-21T00:37:52.954Z,82.45
2019-02-21T00:41:54.790Z,82.68
2019-02-21T00:45:56.682Z,82.59
2019-02-21T00:49:58.586Z,82.70
2019-02-21T00:54:00.477Z,82.47
2019-02-21T00:58:02.365Z,82.91
2019-02-21T01:02:04.372Z,82.89
2019-02-21T01:06:06.428Z,82.83
2019-02-21T01:10:09.360Z,82.71
2019-02-21T01:14:12.226Z,82.85
2019-02-21T01:18:14.103Z,83.31
2019-02-21T01:22:17.119Z,83.82
2019-02-21T01:26:19.076Z,83.99
2019-02-21T01:30:21.016Z,83.88
2019-02-21T01:34:23.032Z,83.78
2019-02-21T01:38:25.681Z,83.48
2019-02-21T01:42:27.573Z,83.46
2019-02-21T01:46:29.466Z,83.18
2019-02-21T01:50:31.707Z,83.07
2019-02-21T01:54:33.746Z,82.91
2019-02-21T01:58:53.999Z,83.07
2019-02-21T02:02:55.911Z,83.27
2019-02-21T02:06:57.828Z,83.42
2019-02-21T02:10:59.749Z,83.57
2019-02-21T02:15:04.020Z,83.96
2019-02-21T02:19:06.078Z,84.34
2019-02-21T02:23:08.964Z,84.49
2019-02-21T02:27:10.859Z,84.37
2019-02-21T02:31:22.060Z,84.20
2019-02-21T02:35:16.422Z,84.20
2019-02-21T02:39:18.483Z,84.12
2019-02-21T02:43:20.360Z,84.04
2019-02-21T02:47:22.261Z,83.98
2019-02-21T02:51:25.397Z,83.92
2019-02-21T02:55:27.306Z,83.53
2019-02-21T02:59:40.319Z,83.48
2019-02-21T03:03:32.821Z,83.62
2019-02-21T03:07:34.745Z,84.33
2019-02-21T03:11:36.653Z,84.55
2019-02-21T03:15:39.559Z,84.38
2019-02-21T03:19:41.464Z,84.21
2019-02-21T03:23:43.372Z,84.33
2019-02-21T03:27:45.371Z,84.23
2019-02-21T03:31:54.598Z,84.53
2019-02-21T03:35:50.951Z,84.64
2019-02-21T03:39:52.843Z,84.61
2019-02-21T03:43:54.783Z,84.82
2019-02-21T03:47:56.677Z,84.73
2019-02-21T03:51:58.643Z,84.57
2019-02-21T03:56:00.520Z,84.61
2019-02-21T04:00:02.557Z,84.72
2019-02-21T04:04:05.845Z,84.62
2019-02-21T04:08:07.792Z,84.68
2019-02-21T04:12:09.669Z,84.52
2019-02-21T04:16:11.575Z,84.16
2019-02-21T04:20:13.564Z,84.06
2019-02-21T04:24:15.469Z,83.91
2019-02-21T04:28:17.407Z,83.74
2019-02-21T04:32:19.456Z,83.92
2019-02-21T04:36:23.456Z,84.35
2019-02-21T04:40:26.595Z,84.78
2019-02-21T04:44:28.501Z,84.90
2019-02-21T04:48:30.413Z,85.39
2019-02-21T04:52:32.338Z,85.30
2019-02-21T04:56:34.254Z,85.38
2019-02-21T05:00:36.227Z,85.27
2019-02-21T05:04:38.142Z,84.85
2019-02-21T05:08:40.055Z,85.01
2019-02-21T05:12:41.969Z,85.12
2019-02-21T05:16:44.690Z,85.29
2019-02-21T05:20:46.661Z,85.75
2019-02-21T05:24:48.587Z,86.28
2019-02-21T05:28:50.505Z,86.60
2019-02-21T05:32:59.826Z,86.67
2019-02-21T05:37:06.465Z,86.85
2019-02-21T05:41:10.001Z,87.07
2019-02-21T05:45:25.597Z,87.14
2019-02-21T05:49:35.340Z,87.08
2019-02-21T05:53:38.892Z,87.09
2019-02-21T05:57:48.507Z,86.98
2019-02-21T06:01:57.809Z,87.10
2019-02-21T06:06:10.125Z,87.13
2019-02-21T06:10:17.259Z,87.03
2019-02-21T06:14:32.885Z,86.44
2019-02-21T06:18:43.519Z,86.13
2019-02-21T06:23:05.147Z,86.33
2019-02-21T06:27:08.686Z,86.27
2019-02-21T06:31:10.915Z,86.33
2019-02-21T06:35:12.996Z,86.25
2019-02-21T06:39:14.919Z,86.18
2019-02-21T06:43:16.959Z,86.06
2019-02-21T06:47:18.848Z,86.08
2019-02-21T06:51:20.767Z,86.20
2019-02-21T06:55:22.686Z,86.19
2019-02-21T06:59:25.869Z,86.14
2019-02-21T07:03:29.071Z,86.21
2019-02-21T07:07:31.010Z,86.41
2019-02-21T07:11:32.930Z,86.77
2019-02-21T07:15:34.849Z,87.05
2019-02-21T07:19:36.766Z,87.10
2019-02-21T07:23:43.466Z,87.17
2019-02-21T07:27:42.337Z,87.26
2019-02-21T07:31:44.298Z,87.37
2019-02-21T07:35:46.203Z,87.46
2019-02-21T07:39:50.767Z,87.61
2019-02-21T07:43:52.022Z,87.54
2019-02-21T07:47:54.059Z,87.49
2019-02-21T07:51:55.968Z,87.52
2019-02-21T07:55:57.872Z,87.53
2019-02-21T07:59:59.815Z,87.57
2019-02-21T08:04:01.707Z,87.60
2019-02-21T08:08:03.618Z,87.48
2019-02-21T08:12:06.505Z,87.54
2019-02-21T08:16:08.406Z,87.56
2019-02-21T08:20:12.715Z,87.46
2019-02-21T08:24:14.660Z,87.40
2019-02-21T08:28:16.548Z,87.47
2019-02-21T08:32:20.087Z,87.73
2019-02-21T08:36:22.002Z,87.61
2019-02-21T08:40:25.129Z,87.56
2019-02-21T08:44:28.922Z,87.27
2019-02-21T08:48:30.682Z,87.27
2019-02-21T08:52:32.578Z,87.15
2019-02-21T08:56:34.481Z,86.93
2019-02-21T09:00:36.584Z,86.45
2019-02-21T09:04:38.500Z,86.18
2019-02-21T09:08:40.392Z,86.11
2019-02-21T09:12:47.134Z,85.80
2019-02-21T09:16:46.072Z,86.56
2019-02-21T09:20:47.983Z,86.38
2019-02-21T09:24:49.917Z,85.89
2019-02-21T09:28:51.805Z,85.63
2019-02-21T09:32:53.717Z,85.23
2019-02-21T09:36:55.623Z,84.59
2019-02-21T09:40:57.527Z,83.59
2019-02-21T09:44:59.427Z,82.81
2019-02-21T09:49:03.022Z,82.38
2019-02-21T09:53:06.153Z,79.51
2019-02-21T09:57:13.329Z,77.09
2019-02-21T10:01:11.687Z,74.92
2019-02-21T10:05:13.778Z,74.72
2019-02-21T10:09:16.632Z,74.30
2019-02-21T10:13:18.556Z,73.13
2019-02-21T10:17:20.462Z,71.81
2019-02-21T10:21:22.471Z,70.74
2019-02-21T10:25:30.356Z,69.82
2019-02-21T10:29:32.240Z,68.43
2019-02-21T10:33:34.157Z,66.60
2019-02-21T10:37:36.050Z,63.87
2019-02-21T10:41:37.983Z,64.09
2019-02-21T10:45:47.420Z,63.40
2019-02-21T10:49:43.512Z,63.69
2019-02-21T10:53:45.433Z,63.39
2019-02-21T10:57:47.792Z,63.51
2019-02-21T11:01:49.696Z,64.24
2019-02-21T11:05:51.601Z,64.14
2019-02-21T11:09:53.496Z,64.65
2019-02-21T11:13:55.413Z,64.71
2019-02-21T11:17:57.352Z,63.77
2019-02-21T11:21:59.261Z,63.06
2019-02-21T11:26:01.739Z,61.88
2019-02-21T11:30:05.095Z,61.15
2019-02-21T11:34:07.012Z,61.60
2019-02-21T11:38:08.969Z,61.67
2019-02-21T11:42:10.883Z,60.57
2019-02-21T11:46:12.771Z,59.39
2019-02-21T11:50:17.299Z,58.84
2019-02-21T11:54:26.483Z,59.39
2019-02-21T11:58:22.856Z,59.22
2019-02-21T12:02:26.029Z,60.58
2019-02-21T12:06:27.959Z,59.82
2019-02-21T12:10:29.875Z,59.95
2019-02-21T12:14:31.794Z,59.56
2019-02-21T12:18:33.726Z,59.65
2019-02-21T12:22:35.694Z,60.20
2019-02-21T12:26:37.546Z,60.62
2019-02-21T12:30:39.465Z,59.65
2019-02-21T12:34:41.394Z,59.77
2019-02-21T12:38:43.344Z,60.85
2019-02-21T12:42:45.273Z,60.33
2019-02-21T12:46:47.243Z,59.70
2019-02-21T12:50:49.140Z,58.33
2019-02-21T12:54:51.856Z,55.77
2019-02-21T12:58:54.822Z,54.87
2019-02-21T13:02:56.754Z,56.32
2019-02-21T13:06:58.670Z,56.05
2019-02-21T13:11:00.595Z,56.39
2019-02-21T13:15:02.517Z,58.19
2019-02-21T13:19:04.501Z,57.33
2019-02-21T13:23:06.427Z,57.49
2019-02-21T13:27:08.329Z,57.89
2019-02-21T13:31:10.247Z,58.84
2019-02-21T13:35:15.341Z,58.04
2019-02-21T13:39:17.243Z,58.18
2019-02-21T13:43:23.791Z,58.47
2019-02-21T13:47:26.276Z,58.18
2019-02-21T13:51:28.199Z,57.61
2019-02-21T13:55:30.116Z,57.32
2019-02-21T13:59:34.783Z,57.31
2019-02-21T14:03:35.708Z,57.02
2019-02-21T14:07:37.604Z,57.44
2019-02-21T14:11:39.569Z,57.36
2019-02-21T14:15:41.563Z,58.01
2019-02-21T14:19:44.451Z,57.96
2019-02-21T14:23:47.351Z,57.98
2019-02-21T14:27:49.269Z,58.20
2019-02-21T14:31:51.220Z,58.08
2019-02-21T14:35:53.111Z,57.82
2019-02-21T14:39:55.051Z,57.44
2019-02-21T14:43:56.942Z,56.81
2019-02-21T14:47:58.852Z,56.23
2019-02-21T14:52:02.011Z,56.44
2019-02-21T14:56:04.088Z,57.20
2019-02-21T15:00:16.116Z,56.88
2019-02-21T15:04:18.269Z,57.24
2019-02-21T15:08:22.205Z,57.89
2019-02-21T15:12:24.141Z,58.31
2019-02-21T15:16:26.336Z,58.24
2019-02-21T15:20:36.369Z,57.97
2019-02-21T15:24:31.852Z,58.27
2019-02-21T15:28:33.759Z,58.44
2019-02-21T15:32:35.659Z,58.47
2019-02-21T15:36:38.499Z,59.33
2019-02-21T15:40:43.410Z,60.03
2019-02-21T15:44:45.253Z,60.32
2019-02-21T15:48:47.157Z,60.37
2019-02-21T15:52:49.539Z,60.32
2019-02-21T15:56:51.527Z,60.65
2019-02-21T16:00:53.448Z,60.80
2019-02-21T16:04:55.346Z,61.48
2019-02-21T16:08:57.260Z,62.10
2019-02-21T16:12:59.540Z,62.83
2019-02-21T16:17:01.760Z,62.70
2019-02-21T16:21:03.646Z,62.85
2019-02-21T16:25:12.693Z,62.72
2019-02-21T16:29:14.706Z,62.98
2019-02-21T16:33:16.614Z,62.94
2019-02-21T16:37:18.502Z,63.14
2019-02-21T16:41:20.425Z,63.71
2019-02-21T16:45:23.428Z,63.76
2019-02-21T16:49:26.298Z,64.12
2019-02-21T16:53:28.290Z,64.40
2019-02-21T16:57:30.195Z,64.38
2019-02-21T17:01:32.084Z,65.12
2019-02-21T17:05:34.237Z,65.44
2019-02-21T17:09:36.145Z,65.79
2019-02-21T17:13:39.143Z,65.91
2019-02-21T17:17:41.035Z,66.38
2019-02-21T17:21:42.937Z,66.63
2019-02-21T17:25:44.833Z,66.81
2019-02-21T17:29:46.745Z,67.04
2019-02-21T17:33:48.646Z,67.54
2019-02-21T17:37:50.548Z,67.97
2019-02-21T17:41:52.519Z,68.51
2019-02-21T17:45:54.465Z,68.61
2019-02-21T17:49:56.370Z,68.99
2019-02-21T17:53:58.331Z,69.29
2019-02-21T17:58:00.236Z,69.46
2019-02-21T18:02:02.251Z,69.91
2019-02-21T18:06:04.163Z,70.72
2019-02-21T18:10:13.546Z,70.86
2019-02-21T18:14:15.448Z,71.13
2019-02-21T18:18:17.464Z,71.39
2019-02-21T18:22:19.411Z,71.63
2019-02-21T18:26:21.323Z,71.42
2019-02-21T18:30:23.895Z,71.14
2019-02-21T18:34:26.402Z,71.15
2019-02-21T18:38:28.456Z,70.51
2019-02-21T18:42:30.369Z,70.33
2019-02-21T18:46:32.272Z,70.32
2019-02-21T18:50:38.267Z,70.17
2019-02-21T18:54:37.775Z,69.94
2019-02-21T18:58:39.695Z,70.05
2019-02-21T19:02:42.567Z,70.00
2019-02-21T19:06:44.466Z,70.17
2019-02-21T19:10:46.378Z,70.16
2019-02-21T19:14:48.292Z,70.29
2019-02-21T19:18:50.199Z,70.49
2019-02-21T19:22:52.104Z,70.60
2019-02-21T19:26:53.991Z,70.62
2019-02-21T19:31:06.104Z,71.10
2019-02-21T19:35:09.564Z,71.15
2019-02-21T19:39:12.503Z,71.13
2019-02-21T19:43:14.433Z,71.52
2019-02-21T19:47:16.311Z,71.77
2019-02-21T19:51:18.212Z,72.31
2019-02-21T19:55:20.125Z,73.02
2019-02-21T19:59:22.040Z,72.90
2019-02-21T20:03:24.091Z,73.11
2019-02-21T20:07:26.525Z,73.23
2019-02-21T20:11:29.305Z,73.45
2019-02-21T20:15:31.317Z,73.72
2019-02-21T20:19:33.280Z,73.88
2019-02-21T20:23:35.179Z,74.65
2019-02-21T20:27:37.086Z,74.55
2019-02-21T20:31:38.991Z,74.35
2019-02-21T20:35:40.883Z,75.46
2019-02-21T20:39:42.791Z,75.39
2019-02-21T20:43:44.697Z,75.60
2019-02-21T20:47:46.614Z,75.64
2019-02-21T20:51:48.496Z,76.05
2019-02-21T20:55:50.415Z,75.74
2019-02-21T20:59:52.316Z,76.25
2019-02-21T21:03:54.248Z,76.47
2019-02-21T21:07:56.158Z,76.43
2019-02-21T21:11:58.113Z,76.73
2019-02-21T21:16:00.022Z,76.71
2019-02-21T21:20:01.934Z,76.77
2019-02-21T21:24:05.437Z,77.08
2019-02-21T21:28:07.457Z,76.95
2019-02-21T21:32:10.242Z,76.92
2019-02-21T21:36:12.132Z,76.78
2019-02-21T21:40:17.074Z,76.63
2019-02-21T21:44:18.991Z,76.58
2019-02-21T21:48:20.906Z,76.30
2019-02-21T21:52:22.894Z,76.52
2019-02-21T21:56:24.791Z,76.66
2019-02-21T22:00:26.956Z,76.70
2019-02-21T22:04:28.848Z,76.69
2019-02-21T22:08:30.779Z,76.80
2019-02-21T22:12:32.801Z,76.85
2019-02-21T22:16:34.707Z,76.96
2019-02-21T22:20:37.377Z,77.03
2019-02-21T22:24:39.269Z,76.97
2019-02-21T22:28:41.206Z,77.07
2019-02-21T22:32:43.108Z,77.08
2019-02-21T22:36:45.015Z,77.38
2019-02-21T22:40:46.977Z,77.34
2019-02-21T22:44:48.861Z,77.54
2019-02-21T22:48:50.804Z,77.78
2019-02-21T22:52:52.691Z,77.77
2019-02-21T22:56:54.805Z,78.28
2019-02-21T23:01:01.669Z,78.47
2019-02-21T23:05:23.571Z,78.67
2019-02-21T23:09:28.222Z,78.85
2019-02-21T23:13:30.294Z,78.54
2019-02-21T23:17:32.190Z,78.73
2019-02-21T23:21:34.180Z,78.65
2019-02-21T23:25:36.092Z,78.45
2019-02-21T23:29:38.196Z,78.28
2019-02-21T23:33:41.727Z,78.37
2019-02-21T23:37:43.624Z,78.37
2019-02-21T23:41:45.561Z,78.51
2019-02-21T23:45:47.451Z,78.33
2019-02-21T23:49:49.364Z,78.28
2019-02-21T23:53:51.308Z,78.20
2019-02-21T23:57:53.605Z,78.23
